createdAt,value
2022-12-01T00:01:39.625Z,100985.59
2022-12-01T00:04:08.022Z,100972.63
2022-12-01T00:06:37.901Z,100989.78
2022-12-01T00:09:25.353Z,100987.19
2022-12-01T00:11:53.706Z,100984.38
2022-12-01T00:14:22.713Z,100986.19
2022-12-01T00:16:51.209Z,100989.00
2022-12-01T00:19:19.680Z,100976.09
2022-12-01T00:21:48.150Z,100983.03
2022-12-01T00:24:18.390Z,100976.00
2022-12-01T00:26:47.359Z,100975.88
2022-12-01T00:29:15.827Z,100977.56
2022-12-01T00:31:44.444Z,100977.66
2022-12-01T00:34:24.704Z,100971.72
2022-12-01T00:36:53.369Z,100969.94
2022-12-01T00:39:23.779Z,100966.34
2022-12-01T00:41:52.196Z,100980.03
2022-12-01T00:44:20.890Z,100970.84
2022-12-01T00:46:49.387Z,100984.38
2022-12-01T00:49:18.090Z,100987.66
2022-12-01T00:51:46.628Z,100980.69
2022-12-01T00:54:15.367Z,100985.66
2022-12-01T00:56:45.103Z,100981.16
2022-12-01T00:59:13.720Z,100987.84
2022-12-01T01:01:42.722Z,100979.47
2022-12-01T01:04:11.617Z,100984.75
2022-12-01T01:06:39.947Z,100993.59
2022-12-01T01:09:08.443Z,100984.19
2022-12-01T01:11:37.374Z,100999.50
2022-12-01T01:14:08.206Z,100989.19
2022-12-01T01:16:36.690Z,100991.66
2022-12-01T01:19:05.345Z,100993.25
2022-12-01T01:21:33.854Z,100998.59
2022-12-01T01:24:02.243Z,100993.69
2022-12-01T01:26:33.098Z,101000.75
2022-12-01T01:29:04.145Z,100998.16
2022-12-01T01:31:35.059Z,101002.53
2022-12-01T01:34:04.846Z,101003.31
2022-12-01T01:36:33.804Z,101004.34
2022-12-01T01:39:03.010Z,101010.25
2022-12-01T01:41:31.492Z,101014.63
2022-12-01T01:44:03.019Z,101005.13
2022-12-01T01:46:35.036Z,101017.88
2022-12-01T01:49:07.918Z,101016.97
2022-12-01T01:51:41.666Z,101022.13
2022-12-01T01:54:15.925Z,101023.72
2022-12-01T01:56:46.031Z,101024.38
2022-12-01T01:59:19.342Z,101019.00
2022-12-01T02:01:59.844Z,101028.41
2022-12-01T02:04:30.075Z,101023.13
2022-12-01T02:06:58.552Z,101019.56
2022-12-01T02:09:27.293Z,101024.59
2022-12-01T02:12:12.741Z,101016.09
2022-12-01T02:15:01.255Z,101016.31
2022-12-01T02:17:41.907Z,101016.56
2022-12-01T02:20:58.076Z,101013.09
2022-12-01T02:23:52.801Z,101016.63
2022-12-01T02:26:40.484Z,101009.16
2022-12-01T02:29:48.394Z,101001.50
2022-12-01T02:32:25.302Z,101008.25
2022-12-01T02:35:00.651Z,101011.50
2022-12-01T02:37:38.340Z,101006.25
2022-12-01T02:40:14.787Z,101012.97
2022-12-01T02:42:54.109Z,101011.84
2022-12-01T02:45:34.864Z,101008.38
2022-12-01T02:48:11.054Z,101008.47
2022-12-01T02:50:41.832Z,101010.94
2022-12-01T02:53:14.625Z,101010.06
2022-12-01T02:55:55.649Z,101014.50
2022-12-01T02:58:24.420Z,101005.09
2022-12-01T03:01:26.625Z,101012.97
2022-12-01T03:04:54.465Z,101000.84
2022-12-01T03:07:44.981Z,101000.09
2022-12-01T03:10:24.136Z,101007.03
2022-12-01T03:13:06.593Z,101007.13
2022-12-01T03:15:40.100Z,101008.81
2022-12-01T03:18:20.325Z,101007.13
2022-12-01T03:20:57.545Z,101009.81
2022-12-01T03:23:32.407Z,101012.50
2022-12-01T03:26:06.984Z,100998.84
2022-12-01T03:28:42.752Z,101001.63
2022-12-01T03:31:17.229Z,101004.34
2022-12-01T03:33:51.654Z,101011.16
2022-12-01T03:36:26.892Z,101024.03
2022-12-01T03:39:04.628Z,101018.78
2022-12-01T03:41:40.552Z,101003.31
2022-12-01T03:44:12.979Z,101010.25
2022-12-01T03:46:50.164Z,101008.72
2022-12-01T03:49:20.334Z,101006.34
2022-12-01T03:52:04.711Z,101005.81
2022-12-01T03:54:46.720Z,101005.81
2022-12-01T03:57:20.170Z,101015.28
2022-12-01T03:59:50.233Z,101009.38
2022-12-01T04:02:19.553Z,101007.69
2022-12-01T04:04:48.175Z,101006.00
2022-12-01T04:07:16.743Z,101011.81
2022-12-01T04:09:46.677Z,101001.31
2022-12-01T04:12:30.011Z,101008.91
2022-12-01T04:14:59.149Z,101009.59
2022-12-01T04:17:28.533Z,101003.56
2022-12-01T04:19:56.972Z,101015.66
2022-12-01T04:22:26.112Z,101011.50
2022-12-01T04:24:55.877Z,101017.22
2022-12-01T04:27:24.429Z,101015.41
2022-12-01T04:29:52.847Z,101018.56
2022-12-01T04:32:21.490Z,101020.13
2022-12-01T04:34:50.372Z,101021.72
2022-12-01T04:37:20.148Z,101013.84
2022-12-01T04:39:48.786Z,101016.31
2022-12-01T04:42:18.856Z,101008.47
2022-12-01T04:44:47.488Z,101021.25
2022-12-01T04:47:16.007Z,101010.94
2022-12-01T04:49:44.467Z,101015.09
2022-12-01T04:52:12.917Z,101005.34
2022-12-01T04:54:41.354Z,101001.75
2022-12-01T04:57:09.879Z,101013.59
2022-12-01T04:59:39.764Z,101015.19
2022-12-01T05:02:08.229Z,101007.22
2022-12-01T05:04:38.707Z,101012.63
2022-12-01T05:07:07.852Z,101006.78
2022-12-01T05:09:36.604Z,101012.81
2022-12-01T05:12:05.571Z,101012.06
2022-12-01T05:14:34.069Z,101012.94
2022-12-01T05:17:03.765Z,101012.28
2022-12-01T05:19:50.003Z,101016.41
2022-12-01T05:22:31.460Z,101023.91
2022-12-01T05:25:07.548Z,101018.75
2022-12-01T05:27:36.112Z,101019.66
2022-12-01T05:30:05.337Z,101018.09
2022-12-01T05:32:35.167Z,101022.34
2022-12-01T05:35:03.560Z,101020.56
2022-12-01T05:37:34.560Z,101016.28
2022-12-01T05:40:03.262Z,101025.69
2022-12-01T05:42:31.641Z,101017.84
2022-12-01T05:45:00.046Z,101014.94
2022-12-01T05:47:28.912Z,101023.22
2022-12-01T05:50:04.956Z,101027.25
2022-12-01T05:52:35.490Z,101023.78
2022-12-01T05:55:04.578Z,101024.69
2022-12-01T05:57:33.480Z,101018.53
2022-12-01T06:00:01.939Z,101027.00
2022-12-01T06:02:40.266Z,101027.41
2022-12-01T06:05:11.587Z,101030.56
2022-12-01T06:07:40.668Z,101032.09
2022-12-01T06:10:11.050Z,101040.84
2022-12-01T06:12:39.812Z,101034.03
2022-12-01T06:15:09.817Z,101032.34
2022-12-01T06:17:40.394Z,101027.84
2022-12-01T06:20:13.296Z,101031.34
2022-12-01T06:22:41.628Z,101026.97
2022-12-01T06:25:11.215Z,101037.50
2022-12-01T06:27:39.759Z,101043.44
2022-12-01T06:30:10.161Z,101041.75
2022-12-01T06:32:39.208Z,101044.41
2022-12-01T06:35:10.142Z,101043.75
2022-12-01T06:37:38.473Z,101038.63
2022-12-01T06:40:08.835Z,101043.88
2022-12-01T06:42:37.208Z,101041.19
2022-12-01T06:45:06.660Z,101035.91
2022-12-01T06:47:34.950Z,101044.66
2022-12-01T06:50:03.334Z,101055.09
2022-12-01T06:52:33.030Z,101056.00
2022-12-01T06:55:04.013Z,101053.28
2022-12-01T06:57:33.342Z,101055.75
2022-12-01T07:00:02.031Z,101055.53
2022-12-01T07:02:30.937Z,101057.06
2022-12-01T07:04:59.493Z,101062.09
2022-12-01T07:07:28.220Z,101061.09
2022-12-01T07:09:57.954Z,101060.06
2022-12-01T07:12:26.299Z,101055.56
2022-12-01T07:14:54.930Z,101058.06
2022-12-01T07:17:23.351Z,101054.72
2022-12-01T07:19:51.849Z,101051.47
2022-12-01T07:22:20.705Z,101055.97
2022-12-01T07:24:49.139Z,101062.22
2022-12-01T07:27:18.904Z,101065.00
2022-12-01T07:29:47.472Z,101063.47
2022-12-01T07:32:17.013Z,101061.78
2022-12-01T07:34:45.591Z,101060.88
2022-12-01T07:37:13.993Z,101062.56
2022-12-01T07:39:42.380Z,101066.03
2022-12-01T07:42:11.012Z,101073.75
2022-12-01T07:44:41.141Z,101059.47
2022-12-01T07:47:09.550Z,101065.47
2022-12-01T07:49:37.910Z,101067.84
2022-12-01T07:52:06.546Z,101069.38
2022-12-01T07:54:34.925Z,101076.13
2022-12-01T07:57:04.050Z,101078.44
2022-12-01T07:59:32.457Z,101085.16
2022-12-01T08:02:02.548Z,101080.66
2022-12-01T08:04:31.013Z,101077.19
2022-12-01T08:06:59.430Z,101083.13
2022-12-01T08:09:28.129Z,101088.03
2022-12-01T08:11:56.421Z,101088.03
2022-12-01T08:14:24.930Z,101088.03
2022-12-01T08:16:53.379Z,101092.28
2022-12-01T08:19:23.151Z,101089.84
2022-12-01T08:21:51.570Z,101089.03
2022-12-01T08:24:20.171Z,101094.31
2022-12-01T08:26:48.661Z,101097.00
2022-12-01T08:29:20.107Z,101097.78
2022-12-01T08:31:49.117Z,101095.00
2022-12-01T08:34:17.772Z,101095.00
2022-12-01T08:36:47.768Z,101105.50
2022-12-01T08:39:16.718Z,101107.31
2022-12-01T08:41:45.089Z,101103.97
2022-12-01T08:44:13.741Z,101105.75
2022-12-01T08:46:42.716Z,101104.19
2022-12-01T08:49:11.172Z,101108.56
2022-12-01T08:51:39.671Z,101097.34
2022-12-01T08:54:11.912Z,101097.50
2022-12-01T08:56:43.778Z,101099.94
2022-12-01T08:59:12.618Z,101107.53
2022-12-01T09:01:52.069Z,101102.38
2022-12-01T09:04:22.926Z,101108.34
2022-12-01T09:06:53.471Z,101107.19
2022-12-01T09:09:27.443Z,101114.91
2022-12-01T09:11:57.067Z,101114.78
2022-12-01T09:14:25.714Z,101114.00
2022-12-01T09:16:54.279Z,101110.00
2022-12-01T09:19:25.065Z,101108.44
2022-12-01T09:21:54.022Z,101110.22
2022-12-01T09:24:24.378Z,101118.31
2022-12-01T09:26:56.990Z,101114.19
2022-12-01T09:29:26.534Z,101121.91
2022-12-01T09:31:57.734Z,101120.09
2022-12-01T09:34:26.834Z,101121.00
2022-12-01T09:36:57.633Z,101113.41
2022-12-01T09:39:28.040Z,101111.06
2022-12-01T09:42:08.457Z,101114.81
2022-12-01T09:44:43.170Z,101114.25
2022-12-01T09:47:19.429Z,101111.81
2022-12-01T09:49:57.089Z,101111.13
2022-12-01T09:52:28.935Z,101112.03
2022-12-01T09:55:02.083Z,101114.59
2022-12-01T09:57:36.618Z,101105.84
2022-12-01T10:00:12.626Z,101114.38
2022-12-01T10:02:45.594Z,101114.38
2022-12-01T10:05:20.739Z,101112.72
2022-12-01T10:07:54.565Z,101110.13
2022-12-01T10:10:29.461Z,101109.56
2022-12-01T10:12:58.257Z,101109.69
2022-12-01T10:15:37.118Z,101101.16
2022-12-01T10:18:23.267Z,101104.75
2022-12-01T10:21:02.368Z,101104.88
2022-12-01T10:23:45.688Z,101095.34
2022-12-01T10:26:26.157Z,101099.63
2022-12-01T10:29:14.983Z,101099.47
2022-12-01T10:31:54.800Z,101098.59
2022-12-01T10:34:26.677Z,101094.25
2022-12-01T10:36:55.831Z,101093.09
2022-12-01T10:39:31.066Z,101094.00
2022-12-01T10:42:07.928Z,101091.28
2022-12-01T10:44:37.186Z,101086.06
2022-12-01T10:47:13.294Z,101087.94
2022-12-01T10:49:42.650Z,101087.81
2022-12-01T10:52:34.070Z,101075.84
2022-12-01T10:55:04.976Z,101080.09
2022-12-01T10:57:37.606Z,101085.38
2022-12-01T11:00:09.784Z,101081.13
2022-12-01T11:03:55.746Z,101082.78
2022-12-01T11:06:28.097Z,101088.38
2022-12-01T11:09:00.045Z,101078.34
2022-12-01T11:11:33.127Z,101073.41
2022-12-01T11:14:07.369Z,101076.31
2022-12-01T11:16:47.593Z,101073.84
2022-12-01T11:19:27.564Z,101073.84
2022-12-01T11:21:59.836Z,101072.97
2022-12-01T11:24:48.689Z,101074.63
2022-12-01T11:27:20.545Z,101068.50
2022-12-01T11:29:53.049Z,101074.50
2022-12-01T11:32:25.491Z,101072.97
2022-12-01T11:34:59.847Z,101077.47
2022-12-01T11:37:35.149Z,101075.66
2022-12-01T11:40:20.186Z,101075.41
2022-12-01T11:42:51.856Z,101077.00
2022-12-01T11:45:30.126Z,101072.84
2022-12-01T11:48:07.018Z,101069.34
2022-12-01T11:50:39.731Z,101076.31
2022-12-01T11:53:29.264Z,101073.66
2022-12-01T11:56:17.973Z,101071.84
2022-12-01T11:58:48.923Z,101069.28
2022-12-01T12:01:35.124Z,101063.34
2022-12-01T12:04:21.128Z,101064.34
2022-12-01T12:07:03.904Z,101065.56
2022-12-01T12:10:12.118Z,101059.66
2022-12-01T12:13:00.281Z,101059.75
2022-12-01T12:15:40.786Z,101062.34
2022-12-01T12:18:47.746Z,101057.97
2022-12-01T12:21:30.168Z,101054.50
2022-12-01T12:24:23.552Z,101055.25
2022-12-01T12:27:02.053Z,101047.78
2022-12-01T12:29:53.116Z,101051.34
2022-12-01T12:32:42.890Z,101058.31
2022-12-01T12:35:30.788Z,101050.56
2022-12-01T12:38:09.119Z,101052.38
2022-12-01T12:40:45.779Z,101049.78
2022-12-01T12:43:24.997Z,101047.22
2022-12-01T12:46:03.678Z,101042.06
2022-12-01T12:49:19.802Z,101041.28
2022-12-01T12:51:55.683Z,101038.84
2022-12-01T12:54:31.261Z,101029.31
2022-12-01T12:57:04.850Z,101024.28
2022-12-01T12:59:41.237Z,101037.94
2022-12-01T13:02:16.053Z,101041.28
2022-12-01T13:04:52.234Z,101030.88
2022-12-01T13:07:36.214Z,101040.06
2022-12-01T13:10:17.079Z,101034.91
2022-12-01T13:12:57.758Z,101030.53
2022-12-01T13:15:27.287Z,101031.31
2022-12-01T13:18:13.652Z,101026.16
2022-12-01T13:20:42.858Z,101024.47
2022-12-01T13:23:18.539Z,101022.81
2022-12-01T13:25:53.110Z,101025.59
2022-12-01T13:28:27.279Z,101018.88
2022-12-01T13:31:02.157Z,101015.88
2022-12-01T13:33:31.451Z,101021.13
2022-12-01T13:36:38.125Z,101019.47
2022-12-01T13:39:00.223Z,101009.81
2022-12-01T13:41:31.659Z,101014.75
2022-12-01T13:44:04.806Z,101007.81
2022-12-01T13:46:51.863Z,101005.00
2022-12-01T13:49:43.829Z,101004.00
2022-12-01T13:52:32.750Z,100997.81
2022-12-01T13:55:26.956Z,100997.72
2022-12-01T13:58:26.092Z,100994.78
2022-12-01T14:01:35.152Z,100996.38
2022-12-01T14:04:31.671Z,100995.25
2022-12-01T14:07:37.803Z,101003.53
2022-12-01T14:10:27.328Z,100998.38
2022-12-01T14:13:00.617Z,101001.06
2022-12-01T14:15:40.287Z,101008.00
2022-12-01T14:18:34.108Z,101008.00
2022-12-01T14:21:05.781Z,101004.44
2022-12-01T14:23:37.141Z,101004.31
2022-12-01T14:26:17.215Z,101003.53
2022-12-01T14:29:29.005Z,101003.66
2022-12-01T14:32:23.362Z,101002.84
2022-12-01T14:35:00.860Z,101008.13
2022-12-01T14:37:43.487Z,101008.00
2022-12-01T14:40:29.635Z,100999.28
2022-12-01T14:43:18.724Z,101006.22
2022-12-01T14:45:58.667Z,101006.09
2022-12-01T14:48:35.908Z,101002.63
2022-12-01T14:51:18.108Z,101001.06
2022-12-01T14:53:50.116Z,101000.06
2022-12-01T14:56:21.473Z,100999.84
2022-12-01T14:58:57.217Z,101011.56
2022-12-01T15:01:31.575Z,101016.72
2022-12-01T15:04:02.969Z,101012.22
2022-12-01T15:06:33.991Z,101013.00
2022-12-01T15:12:03.480Z,101010.31
2022-12-01T15:14:36.470Z,101015.44
2022-12-01T15:17:08.823Z,101005.28
2022-12-01T15:19:40.944Z,101003.47
2022-12-01T15:22:15.869Z,101014.66
2022-12-01T15:24:45.570Z,101028.97
2022-12-01T15:27:28.556Z,101035.91
2022-12-01T15:30:03.325Z,101031.53
2022-12-01T15:32:34.494Z,101022.84
2022-12-01T15:35:04.735Z,101035.81
2022-12-01T15:37:43.797Z,101039.94
2022-12-01T15:43:16.133Z,101049.66
2022-12-01T15:45:51.994Z,101048.75
2022-12-01T15:48:30.582Z,101043.59
2022-12-01T15:51:12.602Z,101029.84
2022-12-01T15:53:48.862Z,101041.94
2022-12-01T15:56:18.106Z,101041.16
2022-12-01T15:58:48.759Z,101033.44
2022-12-01T16:01:21.194Z,101038.59
2022-12-01T16:03:58.462Z,101027.38
2022-12-01T16:06:32.093Z,101016.19
2022-12-01T16:09:04.212Z,101010.16
2022-12-01T16:11:33.006Z,101000.75
2022-12-01T16:14:05.125Z,101004.34
2022-12-01T16:16:44.700Z,101002.81
2022-12-01T16:19:31.439Z,101003.56
2022-12-01T16:22:13.285Z,100998.44
2022-12-01T16:24:48.499Z,101001.00
2022-12-01T16:27:24.318Z,100989.94
2022-12-01T16:29:55.013Z,101000.22
2022-12-01T16:32:37.939Z,101000.31
2022-12-01T16:35:07.922Z,101012.41
2022-12-01T16:37:36.334Z,101005.38
2022-12-01T16:40:07.699Z,101006.22
2022-12-01T16:42:36.218Z,101011.06
2022-12-01T16:45:05.130Z,101012.38
2022-12-01T16:47:35.395Z,101005.22
2022-12-01T16:50:04.207Z,101009.47
2022-12-01T16:52:48.002Z,101017.06
2022-12-01T16:55:30.628Z,101021.31
2022-12-01T16:57:59.461Z,101024.78
2022-12-01T17:00:30.937Z,101022.47
2022-12-01T17:03:02.755Z,101022.69
2022-12-01T17:05:31.155Z,101031.53
2022-12-01T17:07:59.811Z,101023.41
2022-12-01T17:10:31.526Z,101028.19
2022-12-01T17:13:00.359Z,101036.16
2022-12-01T17:15:29.060Z,101028.66
2022-12-01T17:17:57.565Z,101023.78
2022-12-01T17:20:27.680Z,101031.38
2022-12-01T17:22:56.170Z,101027.91
2022-12-01T17:25:25.261Z,101035.66
2022-12-01T17:27:53.855Z,101047.88
2022-12-01T17:30:22.566Z,101046.19
2022-12-01T17:32:51.041Z,101045.38
2022-12-01T17:35:19.772Z,101043.72
2022-12-01T17:37:49.563Z,101042.03
2022-12-01T17:40:18.178Z,101048.97
2022-12-01T17:42:50.666Z,101053.34
2022-12-01T17:45:20.186Z,101050.00
2022-12-01T17:47:48.630Z,101041.25
2022-12-01T17:50:17.993Z,101050.66
2022-12-01T17:52:46.590Z,101054.69
2022-12-01T17:55:16.575Z,101049.25
2022-12-01T17:57:45.187Z,101052.50
2022-12-01T18:00:17.081Z,101056.75
2022-12-01T18:02:47.644Z,101050.72
2022-12-01T18:05:16.358Z,101056.00
2022-12-01T18:07:44.740Z,101052.50
2022-12-01T18:10:13.574Z,101051.63
2022-12-01T18:12:43.474Z,101052.50
2022-12-01T18:15:12.632Z,101058.56
2022-12-01T18:17:41.137Z,101048.91
2022-12-01T18:20:11.158Z,101060.00
2022-12-01T18:22:39.932Z,101058.09
2022-12-01T18:25:09.404Z,101063.00
2022-12-01T18:27:37.923Z,101062.78
2022-12-01T18:30:10.407Z,101062.78
2022-12-01T18:32:39.078Z,101065.34
2022-12-01T18:35:08.682Z,101064.31
2022-12-01T18:37:37.492Z,101059.88
2022-12-01T18:40:08.171Z,101062.31
2022-12-01T18:42:36.551Z,101053.56
2022-12-01T18:45:07.528Z,101054.47
2022-12-01T18:47:35.940Z,101057.81
2022-12-01T18:50:05.925Z,101056.13
2022-12-01T18:52:36.560Z,101057.94
2022-12-01T18:55:05.577Z,101058.50
2022-12-01T18:57:34.031Z,101055.66
2022-12-01T19:00:02.687Z,101058.50
2022-12-01T19:02:33.301Z,101048.84
2022-12-01T19:05:01.886Z,101047.94
2022-12-01T19:07:30.569Z,101058.25
2022-12-01T19:10:00.156Z,101045.38
2022-12-01T19:12:28.557Z,101045.50
2022-12-01T19:14:57.123Z,101049.63
2022-12-01T19:17:25.449Z,101044.47
2022-12-01T19:19:55.290Z,101041.00
2022-12-01T19:22:23.824Z,101046.41
2022-12-01T19:24:52.889Z,101036.66
2022-12-01T19:27:21.520Z,101037.44
2022-12-01T19:29:52.157Z,101042.66
2022-12-01T19:32:21.265Z,101043.56
2022-12-01T19:34:50.133Z,101035.19
2022-12-01T19:37:20.330Z,101043.69
2022-12-01T19:39:48.699Z,101045.94
2022-12-01T19:42:17.458Z,101034.50
2022-12-01T19:44:45.933Z,101029.81
2022-12-01T19:47:19.176Z,101039.06
2022-12-01T19:49:50.693Z,101039.84
2022-12-01T19:52:20.649Z,101037.53
2022-12-01T19:54:49.531Z,101045.25
2022-12-01T19:57:18.353Z,101054.84
2022-12-01T19:59:46.890Z,101038.63
2022-12-01T20:02:15.522Z,101050.72
2022-12-01T20:04:44.026Z,101042.88
2022-12-01T20:07:12.432Z,101053.94
2022-12-01T20:09:49.626Z,101052.41
2022-12-01T20:12:18.519Z,101049.56
2022-12-01T20:14:48.001Z,101042.66
2022-12-01T20:17:16.527Z,101046.91
2022-12-01T20:19:45.025Z,101040.94
2022-12-01T20:22:13.561Z,101042.66
2022-12-01T20:24:43.357Z,101033.00
2022-12-01T20:27:11.856Z,101028.66
2022-12-01T20:29:40.365Z,101031.34
2022-12-01T20:32:08.882Z,101034.94
2022-12-01T20:34:37.620Z,101027.31
2022-12-01T20:37:06.196Z,101034.03
2022-12-01T20:39:37.743Z,101037.25
2022-12-01T20:42:08.263Z,101029.53
2022-12-01T20:44:37.641Z,101041.63
2022-12-01T20:47:06.179Z,101028.91
2022-12-01T20:49:34.857Z,101030.66
2022-12-01T20:52:03.324Z,101040.19
2022-12-01T20:54:31.997Z,101034.25
2022-12-01T20:57:00.965Z,101032.38
2022-12-01T20:59:30.963Z,101033.25
2022-12-01T21:01:59.333Z,101032.38
2022-12-01T21:04:28.439Z,101033.91
2022-12-01T21:06:59.756Z,101032.13
2022-12-01T21:09:28.543Z,101033.66
2022-12-01T21:12:35.591Z,101037.81
2022-12-01T21:15:28.440Z,101033.44
2022-12-01T21:18:23.282Z,101035.75
2022-12-01T21:21:26.626Z,101035.53
2022-12-01T21:24:18.754Z,101033.53
2022-12-01T21:27:15.063Z,101025.69
2022-12-01T21:30:17.927Z,101024.00
2022-12-01T21:33:22.982Z,101027.34
2022-12-01T21:36:17.966Z,101026.72
2022-12-01T21:39:14.916Z,101028.59
2022-12-01T21:42:17.093Z,101028.84
2022-12-01T21:45:17.584Z,101027.94
2022-12-01T21:48:17.066Z,101006.59
2022-12-01T21:51:19.504Z,101017.66
2022-12-01T21:54:14.399Z,101001.31
2022-12-01T21:57:03.613Z,100998.41
2022-12-01T21:59:53.244Z,101012.94
2022-12-01T22:02:50.587Z,101004.88
2022-12-01T22:05:55.873Z,100995.25
2022-12-01T22:08:54.936Z,100991.91
2022-12-01T22:11:46.269Z,100986.75
2022-12-01T22:14:36.927Z,100988.28
2022-12-01T22:17:25.635Z,100990.88
2022-12-01T22:20:23.423Z,100991.91
2022-12-01T22:23:14.775Z,100997.94
2022-12-01T22:26:15.090Z,100991.00
2022-12-01T22:29:09.547Z,100985.72
2022-12-01T22:32:44.185Z,100984.72
2022-12-01T22:35:36.542Z,100986.91
2022-12-01T22:38:43.049Z,100987.81
2022-12-01T22:41:32.948Z,100990.41
2022-12-01T22:44:21.797Z,100984.47
2022-12-01T22:47:10.828Z,100991.63
2022-12-01T22:49:59.450Z,100991.78
2022-12-01T22:52:51.773Z,100995.47
2022-12-01T22:55:42.558Z,100998.47
2022-12-01T22:58:33.468Z,100995.41
2022-12-01T23:01:28.235Z,100990.16
2022-12-01T23:04:26.356Z,100987.59
2022-12-01T23:07:31.107Z,100988.25
2022-12-01T23:10:23.156Z,100984.00
2022-12-01T23:13:20.077Z,100974.41
2022-12-01T23:16:12.024Z,100967.63
2022-12-01T23:19:01.268Z,100970.25
2022-12-01T23:21:50.368Z,100973.38
2022-12-01T23:24:40.118Z,100958.94
2022-12-01T23:27:28.804Z,100963.31
2022-12-01T23:30:21.786Z,100955.88
2022-12-01T23:33:22.784Z,100959.44
2022-12-01T23:36:16.981Z,100951.97
2022-12-01T23:39:13.668Z,100954.91
2022-12-01T23:42:04.276Z,100949.75
2022-12-01T23:44:53.268Z,100952.97
2022-12-01T23:47:43.493Z,100958.66
2022-12-01T23:50:32.617Z,100953.28
2022-12-01T23:53:28.568Z,100943.78
2022-12-01T23:56:21.779Z,100944.34
2022-12-01T23:59:13.700Z,100934.69
